Flight Track Log - Related Links

Times and Time Zones

All times are in EDT time to prevent confusion due to time zone crossing. See the SWA3206 flight status page for this flight to view local times or setup timezone preferences in your user account.

Time Position Orientation Groundspeed Altitude Reporting Facility
EDT Latitude Longitude Course Direction KTS MPH feet Rate Location/Type
Sun 11:13:35 AM 39.8833 -75.2167 72° East 151 174 700  Level Philadelphia TRACON
Sun 11:14:47 AM 39.9000 -75.1500 72° East 211 243 3,100 2,478 Climbing Philadelphia TRACON
Sun 11:15:53 AM 39.9500 -75.1333 14° North 246 283 6,400 2,714 Climbing Philadelphia TRACON
Sun 11:16:53 AM 40.0000 -75.2167 308° West 300 345 8,800 1,895 Climbing Philadelphia TRACON
Sun 11:17:47 AM 40.0500 -75.3000 308° West 312 359 10,000 1,820 Climbing Philadelphia TRACON
Sun 11:18:55 AM 40.1144 -75.3958 311° West 373 429 12,500 1,406 Climbing New York Center
Sun 11:19:55 AM 40.1714 -75.4867 309° West 362 417 13,000 1,322 Climbing New York Center
Sun 11:20:53 AM 40.2461 -75.5950 312° West 362 417 15,100 2,521 Climbing New York Center
Sun 11:21:54 AM 40.3092 -75.6894 311° West 379 436 18,000 2,607 Climbing New York Center
Sun 11:22:55 AM 40.3836 -75.7981 312° West 392 451 20,400 2,727 Climbing New York Center
Sun 11:23:55 AM 40.4464 -75.9364 301° West 398 458 23,500 2,750 Climbing New York Center
Sun 11:24:55 AM 40.4708 -76.0936 282° West 408 470 25,900 2,237 Climbing New York Center
Sun 11:25:53 AM 40.4947 -76.2511 281° West 426 490 27,900 1,815 Climbing New York Center
Sun 11:26:54 AM 40.5136 -76.3811 281° West 442 509 29,500 2,231 Climbing New York Center
Sun 11:27:54 AM 40.5400 -76.5689 281° West 447 514 32,400 2,479 Climbing New York Center
Sun 11:28:55 AM 40.5639 -76.7211 282° West 447 514 34,500 1,785 Climbing New York Center
Sun 11:29:55 AM 40.5872 -76.8736 281° West 435 501 36,000 756 Climbing New York Center
Sun 11:30:54 AM 40.6083 -77.0286 280° West 428 493 36,000  Level New York Center
Sun 11:31:55 AM 40.6294 -77.1811 280° West 428 493 36,000  Level New York Center
Sun 11:32:55 AM 40.6525 -77.3308 282° West 428 493 36,000  Level New York Center
Sun 11:33:56 AM 40.6731 -77.4833 280° West 428 493 36,000  Level New York Center
Sun 11:36:12 AM 40.7175 -77.8217 280° West 430 495 36,000  Level Cleveland Center
Sun 11:37:12 AM 40.7378 -77.9769 280° West 425 489 36,000  Level Cleveland Center
Sun 11:38:12 AM 40.7600 -78.1325 281° West 431 496 36,000  Level Cleveland Center
Sun 11:39:12 AM 40.7800 -78.2881 280° West 431 496 36,000  Level Cleveland Center
Sun 11:40:12 AM 40.7997 -78.4436 280° West 431 496 36,000  Level Cleveland Center
Sun 11:41:12 AM 40.8214 -78.5994 280° West 431 496 36,000  Level Cleveland Center
Sun 11:42:12 AM 40.8406 -78.7525 279° West 431 496 36,000  Level Cleveland Center
Sun 11:43:12 AM 40.8661 -78.9219 281° West 426 490 36,000  Level Cleveland Center
Sun 11:44:12 AM 40.8850 -79.0781 279° West 431 496 36,000  Level Cleveland Center
Sun 11:45:12 AM 40.9036 -79.2342 279° West 431 496 36,000  Level Cleveland Center
Sun 11:46:12 AM 40.9239 -79.3878 280° West 431 496 36,000  Level Cleveland Center
Sun 11:47:12 AM 40.9400 -79.5442 278° West 426 490 36,000  Level Cleveland Center
Sun 11:48:12 AM 40.9603 -79.7006 280° West 426 490 36,000  Level Cleveland Center
Sun 11:49:12 AM 40.9781 -79.8597 278° West 426 490 36,000  Level Cleveland Center
Sun 11:50:12 AM 40.9956 -80.0192 278° West 431 496 36,000  Level Cleveland Center
Sun 11:51:12 AM 41.0150 -80.1786 279° West 437 503 36,000  Level Cleveland Center
Sun 11:52:12 AM 41.0322 -80.3381 278° West 443 510 36,000  Level Cleveland Center
Sun 11:53:12 AM 41.0511 -80.4978 279° West 443 510 36,000  Level Cleveland Center
Sun 11:54:12 AM 41.0678 -80.6575 278° West 443 510 36,000  Level Cleveland Center
Sun 11:55:12 AM 41.0864 -80.8144 279° West 443 510 36,000  Level Cleveland Center
Sun 11:56:12 AM 41.1006 -80.9744 277° West 448 516 36,000  Level Cleveland Center
Sun 11:57:12 AM 41.1144 -81.1206 277° West 448 516 36,000  Level Cleveland Center
Sun 11:58:12 AM 41.1322 -81.2806 278° West 448 516 36,000  Level Cleveland Center
Sun 11:59:12 AM 41.1542 -81.4600 279° West 448 516 36,000  Level Cleveland Center
Sun 12:00:12 PM 41.1694 -81.6203 277° West 448 516 36,000  Level Cleveland Center
Sun 12:01:12 PM 41.1864 -81.7861 278° West 448 516 36,000  Level Cleveland Center
Sun 12:02:12 PM 41.2014 -81.9492 277° West 448 516 36,000  Level Cleveland Center
Sun 12:03:12 PM 41.2181 -82.1125 278° West 448 516 36,000  Level Cleveland Center
Sun 12:04:12 PM 41.2303 -82.2783 276° West 448 516 36,000  Level Cleveland Center
Sun 12:05:12 PM 41.2447 -82.4222 278° West 443 510 36,000  Level Cleveland Center
Sun 12:06:12 PM 41.2586 -82.5831 277° West 443 510 36,000  Level Cleveland Center
Sun 12:07:12 PM 41.2744 -82.7464 277° West 448 516 36,000  Level Cleveland Center
Sun 12:08:12 PM 41.2881 -82.9044 277° West 442 509 36,000  Level Cleveland Center
Sun 12:09:12 PM 41.3033 -83.0653 277° West 447 514 36,000  Level Cleveland Center
Sun 12:10:12 PM 41.3144 -83.2261 275° West 441 507 36,000  Level Cleveland Center
Sun 12:11:12 PM 41.3272 -83.3897 276° West 441 507 36,000  Level Cleveland Center
Sun 12:12:12 PM 41.3442 -83.5481 278° West 446 513 36,000  Level Cleveland Center
Sun 12:13:12 PM 41.3564 -83.7119 276° West 446 513 36,000  Level Cleveland Center
Sun 12:15:10 PM 41.3839 -84.0231 277° West 446 513 36,000  Level Chicago Center
Sun 12:16:12 PM 41.3972 -84.1867 276° West 446 513 36,000 -1,161 Level Chicago Center
Sun 12:17:14 PM 41.4122 -84.3817 276° West 442 509 33,600 -2,032 Descending Chicago Center
Sun 12:18:16 PM 41.4242 -84.5414 276° West 435 501 31,800 -1,742 Descending Chicago Center
Sun 12:19:18 PM 41.4350 -84.6914 276° West 411 473 30,000 -871 Descending Chicago Center
Sun 12:20:20 PM 41.4464 -84.8444 276° West 414 476 30,000 -290 Level Chicago Center
Sun 12:21:22 PM 41.4572 -85.0000 275° West 419 482 29,400 -1,742 Descending Chicago Center
Sun 12:22:24 PM 41.4675 -85.1583 275° West 427 491 26,400 -1,984 Descending Chicago Center
Sun 12:23:26 PM 41.4783 -85.3211 275° West 434 499 25,300 -1,597 Descending Chicago Center
Sun 12:24:28 PM 41.4894 -85.5161 274° West 430 495 23,100 -2,032 Descending Chicago Center
Sun 12:25:30 PM 41.4958 -85.6736 273° West 422 486 21,100 -1,984 Descending Chicago Center
Sun 12:26:32 PM 41.5017 -85.8306 273° West 422 486 19,000 -2,032 Descending Chicago Center
Sun 12:27:34 PM 41.5072 -85.9839 273° West 416 479 16,900 -2,081 Descending Chicago Center
Sun 12:28:36 PM 41.5136 -86.1333 273° West 407 468 14,700 -2,081 Descending Chicago Center
Sun 12:29:38 PM 41.5183 -86.2750 273° West 386 444 12,600 -1,839 Descending Chicago Center
Sun 12:30:40 PM 41.5228 -86.4114 273° West 373 429 10,900 -1,258 Descending Chicago Center
Sun 12:31:42 PM 41.5214 -86.5667 269° West 343 395 10,000 -435 Descending Chicago Center
Sun 12:32:44 PM 41.5203 -86.6836 269° West 327 376 10,000 -339 Level Chicago Center
Sun 12:33:46 PM 41.5200 -86.7967 270° West 307 353 9,300 -871 Descending Chicago Center
Sun 12:34:48 PM 41.5183 -86.9081 269° West 303 349 8,200 -1,258 Descending Chicago Center
Sun 12:35:50 PM 41.5175 -87.0222 269° West 307 353 6,700 -1,065 Descending Chicago Center
Sun 12:36:52 PM 41.5175 -87.1353 270° West 308 354 6,000 -815 Descending Chicago Center
Sun 12:37:11 PM 41.5167 -87.1833 269° West 296 341 5,600 -1,271 Descending Chicago TRACON
Sun 12:38:17 PM 41.5167 -87.3167 270° West 288 331 4,200 -800 Descending Chicago TRACON
Sun 12:39:11 PM 41.5167 -87.4000 270° West 280 322 4,000 -119 Descending Chicago TRACON
Sun 12:39:58 PM 41.5256 -87.4714 279° West 283 326 4,000  Level Chicago Center
Sun 12:41:00 PM 41.5331 -87.5758 276° West 283 326 4,000  Level Chicago Center
Sun 12:42:02 PM 41.5408 -87.6789 276° West 283 326 4,000  Level Chicago Center
Sun 12:43:04 PM 41.5486 -87.7931 275° West 271 312 4,000  Level Chicago Center
Sun 12:44:06 PM 41.5544 -87.8656 276° West 225 259 4,000  Level Chicago Center
Sun 12:45:08 PM 41.5378 -87.9347 252° West 210 242 4,000 -290 Level Chicago Center
Sun 12:46:10 PM 41.5625 -87.9942 299° West 201 231 3,400 -726 Descending Chicago Center
Sun 12:47:12 PM 41.6103 -87.9742 17° North 169 194 2,500 -435 Descending Chicago Center
Sun 12:48:14 PM 41.6411 -87.9350 44° Northeast 158 182 2,500  Level Chicago Center
Sun 12:49:16 PM 41.6731 -87.8936 44° Northeast 159 183 2,500  Level Chicago Center
Sun 12:50:18 PM 41.7064 -87.8517 43° Northeast 162 186 2,500 -341 Level Chicago Center
Sun 12:51:19 PM 41.7333 -87.8167 44° Northeast 134 154 1,800 -661 Descending Chicago TRACON
Sun 12:52:25 PM 41.7667 -87.7833 37° Northeast 121 139 1,100 -636 Descending Chicago TRACON

Login

Don't have an account? Register now (free) for customized features, flight alerts, and more!